sensor_id;sensor_type;location;lat;lon;timestamp;temperature;humidity
54898;DHT22;40800;52.704;6.398;2024-03-02T00:00:10;9.90;1.00
54898;DHT22;40800;52.704;6.398;2024-03-02T00:02:40;9.90;1.00
54898;DHT22;40800;52.704;6.398;2024-03-02T00:05:06;10.00;1.00
54898;DHT22;40800;52.704;6.398;2024-03-02T00:07:31;10.00;1.00
54898;DHT22;40800;52.704;6.398;2024-03-02T00:09:57;10.00;1.00
54898;DHT22;40800;52.704;6.398;2024-03-02T00:12:22;9.90;1.00
54898;DHT22;40800;52.704;6.398;2024-03-02T00:14:48;10.00;1.00
54898;DHT22;40800;52.704;6.398;2024-03-02T00:17:17;9.90;1.00
54898;DHT22;40800;52.704;6.398;2024-03-02T00:19:46;9.80;1.00
54898;DHT22;40800;52.704;6.398;2024-03-02T00:22:12;9.90;1.00
54898;DHT22;40800;52.704;6.398;2024-03-02T00:24:37;10.00;1.00
54898;DHT22;40800;52.704;6.398;2024-03-02T00:27:04;10.00;1.00
54898;DHT22;40800;52.704;6.398;2024-03-02T00:29:30;9.90;1.00
54898;DHT22;40800;52.704;6.398;2024-03-02T00:31:56;10.00;1.00
54898;DHT22;40800;52.704;6.398;2024-03-02T00:34:22;10.00;1.00
54898;DHT22;40800;52.704;6.398;2024-03-02T00:36:48;10.30;1.00
54898;DHT22;40800;52.704;6.398;2024-03-02T00:39:16;9.90;1.00
54898;DHT22;40800;52.704;6.398;2024-03-02T00:41:43;9.90;1.00
54898;DHT22;40800;52.704;6.398;2024-03-02T00:44:12;9.90;1.00
54898;DHT22;40800;52.704;6.398;2024-03-02T00:46:41;9.90;1.00
54898;DHT22;40800;52.704;6.398;2024-03-02T00:49:25;10.00;1.00
54898;DHT22;40800;52.704;6.398;2024-03-02T00:51:54;10.00;1.00
54898;DHT22;40800;52.704;6.398;2024-03-02T00:54:24;9.90;1.00
54898;DHT22;40800;52.704;6.398;2024-03-02T00:56:51;9.90;1.00
54898;DHT22;40800;52.704;6.398;2024-03-02T00:59:17;9.90;1.00
54898;DHT22;40800;52.704;6.398;2024-03-02T01:01:42;9.80;1.00
54898;DHT22;40800;52.704;6.398;2024-03-02T01:04:08;9.80;1.00
54898;DHT22;40800;52.704;6.398;2024-03-02T01:06:34;9.80;1.00
54898;DHT22;40800;52.704;6.398;2024-03-02T01:09:00;9.80;1.00
54898;DHT22;40800;52.704;6.398;2024-03-02T01:11:26;9.80;1.00
54898;DHT22;40800;52.704;6.398;2024-03-02T01:13:51;9.80;1.00
54898;DHT22;40800;52.704;6.398;2024-03-02T01:16:20;9.80;1.00
54898;DHT22;40800;52.704;6.398;2024-03-02T01:18:45;9.80;1.00
54898;DHT22;40800;52.704;6.398;2024-03-02T01:21:11;9.80;1.00
54898;DHT22;40800;52.704;6.398;2024-03-02T01:23:36;9.80;1.00
54898;DHT22;40800;52.704;6.398;2024-03-02T01:26:02;9.80;1.00
54898;DHT22;40800;52.704;6.398;2024-03-02T01:28:28;9.80;1.00
54898;DHT22;40800;52.704;6.398;2024-03-02T01:30:53;9.80;1.00
54898;DHT22;40800;52.704;6.398;2024-03-02T01:33:19;9.60;1.00
54898;DHT22;40800;52.704;6.398;2024-03-02T01:35:44;9.80;1.00
54898;DHT22;40800;52.704;6.398;2024-03-02T01:38:10;9.80;1.00
54898;DHT22;40800;52.704;6.398;2024-03-02T01:40:36;9.80;1.00
54898;DHT22;40800;52.704;6.398;2024-03-02T01:43:02;9.80;1.00
54898;DHT22;40800;52.704;6.398;2024-03-02T01:45:28;9.80;1.00
54898;DHT22;40800;52.704;6.398;2024-03-02T01:47:53;9.80;1.00
54898;DHT22;40800;52.704;6.398;2024-03-02T01:50:28;9.80;1.00
54898;DHT22;40800;52.704;6.398;2024-03-02T01:52:57;9.90;1.00
54898;DHT22;40800;52.704;6.398;2024-03-02T01:55:23;9.80;1.00
54898;DHT22;40800;52.704;6.398;2024-03-02T01:57:49;9.80;1.00
54898;DHT22;40800;52.704;6.398;2024-03-02T02:00:16;9.80;1.00
54898;DHT22;40800;52.704;6.398;2024-03-02T02:02:42;9.90;1.00
54898;DHT22;40800;52.704;6.398;2024-03-02T02:05:07;9.90;1.00
54898;DHT22;40800;52.704;6.398;2024-03-02T02:07:33;9.80;1.00
54898;DHT22;40800;52.704;6.398;2024-03-02T02:10:00;9.80;1.00
54898;DHT22;40800;52.704;6.398;2024-03-02T02:12:26;9.70;1.00
54898;DHT22;40800;52.704;6.398;2024-03-02T02:14:52;9.80;1.00
54898;DHT22;40800;52.704;6.398;2024-03-02T02:17:17;9.70;1.00
54898;DHT22;40800;52.704;6.398;2024-03-02T02:19:43;9.90;1.00
54898;DHT22;40800;52.704;6.398;2024-03-02T02:22:09;10.00;1.00
54898;DHT22;40800;52.704;6.398;2024-03-02T02:24:35;10.00;1.00
54898;DHT22;40800;52.704;6.398;2024-03-02T02:27:00;9.90;1.00
54898;DHT22;40800;52.704;6.398;2024-03-02T02:29:26;9.90;1.00
54898;DHT22;40800;52.704;6.398;2024-03-02T02:31:51;9.90;1.00
54898;DHT22;40800;52.704;6.398;2024-03-02T02:34:17;10.00;1.00
54898;DHT22;40800;52.704;6.398;2024-03-02T02:36:42;10.00;1.00
54898;DHT22;40800;52.704;6.398;2024-03-02T02:39:10;9.90;1.00
54898;DHT22;40800;52.704;6.398;2024-03-02T02:41:36;9.90;1.00
54898;DHT22;40800;52.704;6.398;2024-03-02T02:44:01;9.80;1.00
54898;DHT22;40800;52.704;6.398;2024-03-02T02:46:27;9.80;1.00
54898;DHT22;40800;52.704;6.398;2024-03-02T02:48:52;9.80;99.90
54898;DHT22;40800;52.704;6.398;2024-03-02T02:51:19;9.80;1.00
54898;DHT22;40800;52.704;6.398;2024-03-02T02:53:44;9.80;1.00
54898;DHT22;40800;52.704;6.398;2024-03-02T02:56:10;9.80;1.00
54898;DHT22;40800;52.704;6.398;2024-03-02T02:58:35;9.90;1.00
54898;DHT22;40800;52.704;6.398;2024-03-02T03:01:01;9.90;1.00
54898;DHT22;40800;52.704;6.398;2024-03-02T03:03:26;9.80;99.90
54898;DHT22;40800;52.704;6.398;2024-03-02T03:05:52;9.80;1.00
54898;DHT22;40800;52.704;6.398;2024-03-02T03:08:17;9.70;1.00
54898;DHT22;40800;52.704;6.398;2024-03-02T03:10:43;9.80;1.00
54898;DHT22;40800;52.704;6.398;2024-03-02T03:13:09;9.90;1.00
54898;DHT22;40800;52.704;6.398;2024-03-02T03:15:35;9.80;1.00
54898;DHT22;40800;52.704;6.398;2024-03-02T03:18:02;10.00;1.00
54898;DHT22;40800;52.704;6.398;2024-03-02T03:20:29;9.90;1.00
54898;DHT22;40800;52.704;6.398;2024-03-02T03:22:54;9.90;1.00
54898;DHT22;40800;52.704;6.398;2024-03-02T03:25:20;9.90;1.00
54898;DHT22;40800;52.704;6.398;2024-03-02T03:27:45;10.00;1.00
54898;DHT22;40800;52.704;6.398;2024-03-02T03:30:11;10.00;1.00
54898;DHT22;40800;52.704;6.398;2024-03-02T03:32:37;9.90;1.00
54898;DHT22;40800;52.704;6.398;2024-03-02T03:35:03;10.70;99.90
54898;DHT22;40800;52.704;6.398;2024-03-02T03:37:29;9.80;99.90
54898;DHT22;40800;52.704;6.398;2024-03-02T03:39:58;9.70;99.90
54898;DHT22;40800;52.704;6.398;2024-03-02T03:42:24;9.70;99.90
54898;DHT22;40800;52.704;6.398;2024-03-02T03:44:49;9.70;99.90
54898;DHT22;40800;52.704;6.398;2024-03-02T03:47:15;9.70;99.90
54898;DHT22;40800;52.704;6.398;2024-03-02T03:49:41;9.60;99.90
54898;DHT22;40800;52.704;6.398;2024-03-02T03:52:06;9.50;99.90
54898;DHT22;40800;52.704;6.398;2024-03-02T03:54:32;9.50;99.90
54898;DHT22;40800;52.704;6.398;2024-03-02T03:56:57;9.40;99.90
54898;DHT22;40800;52.704;6.398;2024-03-02T03:59:23;9.40;99.90
54898;DHT22;40800;52.704;6.398;2024-03-02T04:01:49;9.40;99.90
54898;DHT22;40800;52.704;6.398;2024-03-02T04:04:14;9.40;1.00
54898;DHT22;40800;52.704;6.398;2024-03-02T04:06:40;9.50;1.00
54898;DHT22;40800;52.704;6.398;2024-03-02T04:09:05;9.60;1.00
54898;DHT22;40800;52.704;6.398;2024-03-02T04:11:31;9.60;1.00
54898;DHT22;40800;52.704;6.398;2024-03-02T04:13:56;9.60;1.00
54898;DHT22;40800;52.704;6.398;2024-03-02T04:16:22;9.60;1.00
54898;DHT22;40800;52.704;6.398;2024-03-02T04:18:48;9.60;1.00
54898;DHT22;40800;52.704;6.398;2024-03-02T04:21:13;9.50;1.00
54898;DHT22;40800;52.704;6.398;2024-03-02T04:23:39;9.60;1.00
54898;DHT22;40800;52.704;6.398;2024-03-02T04:26:04;9.60;1.00
54898;DHT22;40800;52.704;6.398;2024-03-02T04:28:30;9.50;1.00
54898;DHT22;40800;52.704;6.398;2024-03-02T04:30:55;9.20;1.00
54898;DHT22;40800;52.704;6.398;2024-03-02T04:33:21;9.30;99.90
54898;DHT22;40800;52.704;6.398;2024-03-02T04:35:46;9.30;1.00
54898;DHT22;40800;52.704;6.398;2024-03-02T04:38:12;9.10;1.00
54898;DHT22;40800;52.704;6.398;2024-03-02T04:40:37;9.00;1.00
54898;DHT22;40800;52.704;6.398;2024-03-02T04:43:03;8.90;1.00
54898;DHT22;40800;52.704;6.398;2024-03-02T04:45:29;8.90;1.00
54898;DHT22;40800;52.704;6.398;2024-03-02T04:47:54;8.90;1.00
54898;DHT22;40800;52.704;6.398;2024-03-02T04:50:20;8.80;1.00
54898;DHT22;40800;52.704;6.398;2024-03-02T04:52:45;8.80;1.00
54898;DHT22;40800;52.704;6.398;2024-03-02T04:55:11;8.70;1.00
54898;DHT22;40800;52.704;6.398;2024-03-02T04:58:14;8.30;1.00
54898;DHT22;40800;52.704;6.398;2024-03-02T05:00:40;8.50;1.00
54898;DHT22;40800;52.704;6.398;2024-03-02T05:03:08;8.40;1.00
54898;DHT22;40800;52.704;6.398;2024-03-02T05:05:33;8.40;1.00
54898;DHT22;40800;52.704;6.398;2024-03-02T05:07:59;8.40;1.00
54898;DHT22;40800;52.704;6.398;2024-03-02T05:10:24;8.50;1.00
54898;DHT22;40800;52.704;6.398;2024-03-02T05:12:50;8.60;1.00
54898;DHT22;40800;52.704;6.398;2024-03-02T05:15:25;8.70;1.00
54898;DHT22;40800;52.704;6.398;2024-03-02T05:17:50;8.80;1.00
54898;DHT22;40800;52.704;6.398;2024-03-02T05:20:16;8.80;1.00
54898;DHT22;40800;52.704;6.398;2024-03-02T05:22:42;8.90;1.00
54898;DHT22;40800;52.704;6.398;2024-03-02T05:25:08;8.80;1.00
54898;DHT22;40800;52.704;6.398;2024-03-02T05:27:35;8.70;1.00
54898;DHT22;40800;52.704;6.398;2024-03-02T05:30:00;9.50;1.00
54898;DHT22;40800;52.704;6.398;2024-03-02T05:32:26;8.60;1.00
54898;DHT22;40800;52.704;6.398;2024-03-02T05:34:51;8.60;1.00
54898;DHT22;40800;52.704;6.398;2024-03-02T05:37:17;8.60;1.00
54898;DHT22;40800;52.704;6.398;2024-03-02T05:39:42;8.60;1.00
54898;DHT22;40800;52.704;6.398;2024-03-02T05:42:10;8.50;1.00
54898;DHT22;40800;52.704;6.398;2024-03-02T05:44:36;8.50;1.00
54898;DHT22;40800;52.704;6.398;2024-03-02T05:47:02;8.40;1.00
54898;DHT22;40800;52.704;6.398;2024-03-02T05:49:28;8.30;1.00
54898;DHT22;40800;52.704;6.398;2024-03-02T05:51:54;8.10;6.30
54898;DHT22;40800;52.704;6.398;2024-03-02T05:54:19;8.00;35.90
54898;DHT22;40800;52.704;6.398;2024-03-02T05:56:44;8.10;50.70
54898;DHT22;40800;52.704;6.398;2024-03-02T05:59:10;8.00;23.40
54898;DHT22;40800;52.704;6.398;2024-03-02T06:01:39;7.80;15.50
54898;DHT22;40800;52.704;6.398;2024-03-02T06:04:05;7.70;60.50
54898;DHT22;40800;52.704;6.398;2024-03-02T06:06:30;7.70;89.00
54898;DHT22;40800;52.704;6.398;2024-03-02T06:08:57;7.60;99.90
54898;DHT22;40800;52.704;6.398;2024-03-02T06:11:24;7.60;99.90
54898;DHT22;40800;52.704;6.398;2024-03-02T06:13:50;7.60;99.90
54898;DHT22;40800;52.704;6.398;2024-03-02T06:16:15;7.60;99.90
54898;DHT22;40800;52.704;6.398;2024-03-02T06:18:41;7.60;99.90
54898;DHT22;40800;52.704;6.398;2024-03-02T06:21:06;7.70;99.90
54898;DHT22;40800;52.704;6.398;2024-03-02T06:23:32;7.60;99.90
54898;DHT22;40800;52.704;6.398;2024-03-02T06:25:57;7.70;99.90
54898;DHT22;40800;52.704;6.398;2024-03-02T06:28:23;7.70;99.90
54898;DHT22;40800;52.704;6.398;2024-03-02T06:30:48;7.70;99.90
54898;DHT22;40800;52.704;6.398;2024-03-02T06:33:14;7.60;99.90
54898;DHT22;40800;52.704;6.398;2024-03-02T06:35:39;7.60;99.90
54898;DHT22;40800;52.704;6.398;2024-03-02T06:38:05;7.70;99.90
54898;DHT22;40800;52.704;6.398;2024-03-02T06:40:31;7.70;99.90
54898;DHT22;40800;52.704;6.398;2024-03-02T06:42:56;7.80;99.90
54898;DHT22;40800;52.704;6.398;2024-03-02T06:45:22;7.70;99.90
54898;DHT22;40800;52.704;6.398;2024-03-02T06:47:47;7.60;99.90
54898;DHT22;40800;52.704;6.398;2024-03-02T06:50:13;7.70;99.90
54898;DHT22;40800;52.704;6.398;2024-03-02T06:52:38;7.70;99.90
54898;DHT22;40800;52.704;6.398;2024-03-02T06:55:04;7.70;99.90
54898;DHT22;40800;52.704;6.398;2024-03-02T06:57:30;7.80;99.90
54898;DHT22;40800;52.704;6.398;2024-03-02T06:59:55;7.70;99.90
54898;DHT22;40800;52.704;6.398;2024-03-02T07:02:26;7.90;99.90
54898;DHT22;40800;52.704;6.398;2024-03-02T07:04:52;7.80;99.90
54898;DHT22;40800;52.704;6.398;2024-03-02T07:07:18;7.80;99.90
54898;DHT22;40800;52.704;6.398;2024-03-02T07:09:43;7.80;99.90
54898;DHT22;40800;52.704;6.398;2024-03-02T07:12:09;7.70;99.90
54898;DHT22;40800;52.704;6.398;2024-03-02T07:14:35;7.80;99.90
54898;DHT22;40800;52.704;6.398;2024-03-02T07:17:22;7.90;1.00
54898;DHT22;40800;52.704;6.398;2024-03-02T07:19:47;8.00;1.00
54898;DHT22;40800;52.704;6.398;2024-03-02T07:22:13;8.00;1.00
54898;DHT22;40800;52.704;6.398;2024-03-02T07:24:39;8.00;99.90
54898;DHT22;40800;52.704;6.398;2024-03-02T07:27:05;8.00;99.90
54898;DHT22;40800;52.704;6.398;2024-03-02T07:29:31;8.10;1.00
54898;DHT22;40800;52.704;6.398;2024-03-02T07:31:57;8.00;1.00
54898;DHT22;40800;52.704;6.398;2024-03-02T07:34:22;8.10;1.00
54898;DHT22;40800;52.704;6.398;2024-03-02T07:36:48;8.30;99.90
54898;DHT22;40800;52.704;6.398;2024-03-02T07:39:13;8.50;1.00
54898;DHT22;40800;52.704;6.398;2024-03-02T07:41:39;8.40;99.90
54898;DHT22;40800;52.704;6.398;2024-03-02T07:44:04;8.40;99.90
54898;DHT22;40800;52.704;6.398;2024-03-02T07:46:30;8.60;1.00
54898;DHT22;40800;52.704;6.398;2024-03-02T07:48:55;8.60;99.90
54898;DHT22;40800;52.704;6.398;2024-03-02T07:51:21;8.40;99.90
54898;DHT22;40800;52.704;6.398;2024-03-02T07:53:46;8.40;99.90
54898;DHT22;40800;52.704;6.398;2024-03-02T07:56:11;8.50;99.90
54898;DHT22;40800;52.704;6.398;2024-03-02T07:58:37;8.60;99.90
54898;DHT22;40800;52.704;6.398;2024-03-02T08:01:03;8.60;99.90
54898;DHT22;40800;52.704;6.398;2024-03-02T08:03:28;8.60;99.90
54898;DHT22;40800;52.704;6.398;2024-03-02T08:05:54;8.80;99.90
54898;DHT22;40800;52.704;6.398;2024-03-02T08:08:20;8.90;99.90
54898;DHT22;40800;52.704;6.398;2024-03-02T08:10:45;8.80;99.90
54898;DHT22;40800;52.704;6.398;2024-03-02T08:13:11;9.00;99.90
54898;DHT22;40800;52.704;6.398;2024-03-02T08:15:36;9.10;99.90
54898;DHT22;40800;52.704;6.398;2024-03-02T08:18:02;9.30;99.90
54898;DHT22;40800;52.704;6.398;2024-03-02T08:20:28;9.50;99.90
54898;DHT22;40800;52.704;6.398;2024-03-02T08:22:54;9.70;99.90
54898;DHT22;40800;52.704;6.398;2024-03-02T08:25:20;9.90;99.90
54898;DHT22;40800;52.704;6.398;2024-03-02T08:27:46;9.90;99.90
54898;DHT22;40800;52.704;6.398;2024-03-02T08:30:11;9.50;99.90
54898;DHT22;40800;52.704;6.398;2024-03-02T08:32:37;9.60;99.90
54898;DHT22;40800;52.704;6.398;2024-03-02T08:35:03;9.50;99.90
54898;DHT22;40800;52.704;6.398;2024-03-02T08:37:29;9.70;99.90
54898;DHT22;40800;52.704;6.398;2024-03-02T08:39:54;9.90;99.90
54898;DHT22;40800;52.704;6.398;2024-03-02T08:42:20;10.00;99.90
54898;DHT22;40800;52.704;6.398;2024-03-02T08:44:46;10.10;99.90
54898;DHT22;40800;52.704;6.398;2024-03-02T08:47:11;10.10;99.90
54898;DHT22;40800;52.704;6.398;2024-03-02T08:49:37;10.40;99.90
54898;DHT22;40800;52.704;6.398;2024-03-02T08:52:02;10.60;99.90
54898;DHT22;40800;52.704;6.398;2024-03-02T08:54:28;10.60;99.90
54898;DHT22;40800;52.704;6.398;2024-03-02T08:56:53;10.60;99.90
54898;DHT22;40800;52.704;6.398;2024-03-02T08:59:19;10.50;99.90
54898;DHT22;40800;52.704;6.398;2024-03-02T09:01:44;10.40;93.80
54898;DHT22;40800;52.704;6.398;2024-03-02T09:04:10;10.70;99.90
54898;DHT22;40800;52.704;6.398;2024-03-02T09:06:35;10.90;99.90
54898;DHT22;40800;52.704;6.398;2024-03-02T09:09:01;11.20;99.90
54898;DHT22;40800;52.704;6.398;2024-03-02T09:11:26;10.90;42.50
54898;DHT22;40800;52.704;6.398;2024-03-02T09:13:52;10.60;13.70
54898;DHT22;40800;52.704;6.398;2024-03-02T09:16:18;10.80;40.80
54898;DHT22;40800;52.704;6.398;2024-03-02T09:18:44;10.60;1.00
54898;DHT22;40800;52.704;6.398;2024-03-02T09:21:10;10.50;1.00
54898;DHT22;40800;52.704;6.398;2024-03-02T09:23:35;10.60;26.90
54898;DHT22;40800;52.704;6.398;2024-03-02T09:26:01;10.70;1.00
54898;DHT22;40800;52.704;6.398;2024-03-02T09:28:26;10.60;1.00
54898;DHT22;40800;52.704;6.398;2024-03-02T09:30:52;10.60;1.00
54898;DHT22;40800;52.704;6.398;2024-03-02T09:33:17;11.00;1.00
54898;DHT22;40800;52.704;6.398;2024-03-02T09:35:43;11.30;13.80
54898;DHT22;40800;52.704;6.398;2024-03-02T09:38:09;11.30;1.00
54898;DHT22;40800;52.704;6.398;2024-03-02T09:40:34;10.90;1.00
54898;DHT22;40800;52.704;6.398;2024-03-02T09:43:00;10.90;1.00
54898;DHT22;40800;52.704;6.398;2024-03-02T09:45:26;10.90;1.00
54898;DHT22;40800;52.704;6.398;2024-03-02T09:47:51;11.30;1.00
54898;DHT22;40800;52.704;6.398;2024-03-02T09:50:17;11.30;1.00
54898;DHT22;40800;52.704;6.398;2024-03-02T09:52:43;11.40;1.00
54898;DHT22;40800;52.704;6.398;2024-03-02T09:55:10;11.40;1.00
54898;DHT22;40800;52.704;6.398;2024-03-02T09:57:36;11.40;1.00
54898;DHT22;40800;52.704;6.398;2024-03-02T10:00:02;10.90;1.00
54898;DHT22;40800;52.704;6.398;2024-03-02T10:02:28;11.10;1.00
54898;DHT22;40800;52.704;6.398;2024-03-02T10:04:54;11.10;1.00
54898;DHT22;40800;52.704;6.398;2024-03-02T10:07:19;11.40;1.00
54898;DHT22;40800;52.704;6.398;2024-03-02T10:09:45;11.60;1.00
54898;DHT22;40800;52.704;6.398;2024-03-02T10:12:12;11.40;1.00
54898;DHT22;40800;52.704;6.398;2024-03-02T10:14:38;11.60;99.90
54898;DHT22;40800;52.704;6.398;2024-03-02T10:17:08;11.60;99.90
54898;DHT22;40800;52.704;6.398;2024-03-02T10:19:34;11.50;99.90
54898;DHT22;40800;52.704;6.398;2024-03-02T10:22:06;11.40;99.90
54898;DHT22;40800;52.704;6.398;2024-03-02T10:24:49;11.50;99.90
54898;DHT22;40800;52.704;6.398;2024-03-02T10:27:16;11.60;99.90
54898;DHT22;40800;52.704;6.398;2024-03-02T10:29:42;12.20;99.90
54898;DHT22;40800;52.704;6.398;2024-03-02T10:32:08;12.50;99.90
54898;DHT22;40800;52.704;6.398;2024-03-02T10:34:34;11.80;99.90
54898;DHT22;40800;52.704;6.398;2024-03-02T10:37:01;11.80;99.90
54898;DHT22;40800;52.704;6.398;2024-03-02T10:39:26;12.10;99.90
54898;DHT22;40800;52.704;6.398;2024-03-02T10:41:53;12.30;99.90
54898;DHT22;40800;52.704;6.398;2024-03-02T10:44:19;12.20;99.90
54898;DHT22;40800;52.704;6.398;2024-03-02T10:46:45;12.40;99.90
54898;DHT22;40800;52.704;6.398;2024-03-02T10:49:11;12.40;99.90
54898;DHT22;40800;52.704;6.398;2024-03-02T10:51:36;12.40;99.90
54898;DHT22;40800;52.704;6.398;2024-03-02T10:54:03;12.70;99.90
54898;DHT22;40800;52.704;6.398;2024-03-02T10:56:32;12.50;99.90
54898;DHT22;40800;52.704;6.398;2024-03-02T10:59:02;12.50;99.90
54898;DHT22;40800;52.704;6.398;2024-03-02T11:01:28;12.50;99.90
54898;DHT22;40800;52.704;6.398;2024-03-02T11:03:54;12.50;99.90
54898;DHT22;40800;52.704;6.398;2024-03-02T11:06:20;12.70;99.90
54898;DHT22;40800;52.704;6.398;2024-03-02T11:08:47;12.70;99.90
54898;DHT22;40800;52.704;6.398;2024-03-02T11:11:15;12.90;99.90
54898;DHT22;40800;52.704;6.398;2024-03-02T11:13:42;13.00;99.90
54898;DHT22;40800;52.704;6.398;2024-03-02T11:16:12;13.10;99.90
54898;DHT22;40800;52.704;6.398;2024-03-02T11:18:41;13.40;99.90
54898;DHT22;40800;52.704;6.398;2024-03-02T11:21:07;13.70;99.90
54898;DHT22;40800;52.704;6.398;2024-03-02T11:23:33;13.80;99.90
54898;DHT22;40800;52.704;6.398;2024-03-02T11:28:44;13.70;99.90
54898;DHT22;40800;52.704;6.398;2024-03-02T11:31:09;13.90;99.90
54898;DHT22;40800;52.704;6.398;2024-03-02T11:33:35;14.30;99.90
54898;DHT22;40800;52.704;6.398;2024-03-02T11:36:00;14.40;99.90
54898;DHT22;40800;52.704;6.398;2024-03-02T11:38:32;14.70;99.90
54898;DHT22;40800;52.704;6.398;2024-03-02T11:41:02;14.10;99.90
54898;DHT22;40800;52.704;6.398;2024-03-02T11:43:28;14.30;99.90
54898;DHT22;40800;52.704;6.398;2024-03-02T11:45:58;14.80;99.90
54898;DHT22;40800;52.704;6.398;2024-03-02T11:48:24;15.30;99.90
54898;DHT22;40800;52.704;6.398;2024-03-02T11:50:50;15.30;99.90
54898;DHT22;40800;52.704;6.398;2024-03-02T11:53:16;15.10;99.90
54898;DHT22;40800;52.704;6.398;2024-03-02T11:55:42;15.00;99.90
54898;DHT22;40800;52.704;6.398;2024-03-02T11:58:14;15.80;99.90
54898;DHT22;40800;52.704;6.398;2024-03-02T12:00:39;16.20;99.90
54898;DHT22;40800;52.704;6.398;2024-03-02T12:03:06;16.00;99.90
54898;DHT22;40800;52.704;6.398;2024-03-02T12:05:32;16.30;99.90
54898;DHT22;40800;52.704;6.398;2024-03-02T12:07:58;16.20;99.90
54898;DHT22;40800;52.704;6.398;2024-03-02T12:10:24;16.50;99.90
54898;DHT22;40800;52.704;6.398;2024-03-02T12:12:56;16.90;99.90
54898;DHT22;40800;52.704;6.398;2024-03-02T12:15:23;16.90;99.90
54898;DHT22;40800;52.704;6.398;2024-03-02T12:17:48;16.60;99.90
54898;DHT22;40800;52.704;6.398;2024-03-02T12:20:17;16.30;99.90
54898;DHT22;40800;52.704;6.398;2024-03-02T12:22:43;16.50;99.90
54898;DHT22;40800;52.704;6.398;2024-03-02T12:25:09;16.70;99.90
54898;DHT22;40800;52.704;6.398;2024-03-02T12:27:34;16.50;99.90
54898;DHT22;40800;52.704;6.398;2024-03-02T12:30:01;17.00;99.90
54898;DHT22;40800;52.704;6.398;2024-03-02T12:32:26;17.00;99.90
54898;DHT22;40800;52.704;6.398;2024-03-02T12:34:52;17.30;99.90
54898;DHT22;40800;52.704;6.398;2024-03-02T12:37:18;17.10;99.90
54898;DHT22;40800;52.704;6.398;2024-03-02T12:39:46;17.20;99.90
54898;DHT22;40800;52.704;6.398;2024-03-02T12:42:12;17.50;99.90
54898;DHT22;40800;52.704;6.398;2024-03-02T12:44:37;17.40;99.90
54898;DHT22;40800;52.704;6.398;2024-03-02T12:47:04;17.30;96.80
54898;DHT22;40800;52.704;6.398;2024-03-02T12:49:30;17.20;76.20
54898;DHT22;40800;52.704;6.398;2024-03-02T12:51:57;18.30;84.90
54898;DHT22;40800;52.704;6.398;2024-03-02T12:54:23;17.50;72.60
54898;DHT22;40800;52.704;6.398;2024-03-02T12:56:50;17.60;60.50
54898;DHT22;40800;52.704;6.398;2024-03-02T12:59:19;17.70;43.10
54898;DHT22;40800;52.704;6.398;2024-03-02T13:01:50;17.50;16.90
54898;DHT22;40800;52.704;6.398;2024-03-02T13:04:16;16.70;1.00
54898;DHT22;40800;52.704;6.398;2024-03-02T13:06:41;16.50;1.00
54898;DHT22;40800;52.704;6.398;2024-03-02T13:09:07;16.60;1.00
54898;DHT22;40800;52.704;6.398;2024-03-02T13:11:40;17.20;1.00
54898;DHT22;40800;52.704;6.398;2024-03-02T13:14:05;17.10;1.00
54898;DHT22;40800;52.704;6.398;2024-03-02T13:16:31;17.30;1.00
54898;DHT22;40800;52.704;6.398;2024-03-02T13:18:56;17.20;1.00
54898;DHT22;40800;52.704;6.398;2024-03-02T13:21:22;17.10;1.00
54898;DHT22;40800;52.704;6.398;2024-03-02T13:23:47;16.80;1.00
54898;DHT22;40800;52.704;6.398;2024-03-02T13:26:13;16.80;1.00
54898;DHT22;40800;52.704;6.398;2024-03-02T13:28:39;16.80;1.00
54898;DHT22;40800;52.704;6.398;2024-03-02T13:31:04;16.60;1.00
54898;DHT22;40800;52.704;6.398;2024-03-02T13:33:30;16.90;1.00
54898;DHT22;40800;52.704;6.398;2024-03-02T13:35:56;16.50;1.00
54898;DHT22;40800;52.704;6.398;2024-03-02T13:38:22;16.40;1.00
54898;DHT22;40800;52.704;6.398;2024-03-02T13:40:48;16.10;99.90
54898;DHT22;40800;52.704;6.398;2024-03-02T13:43:16;15.90;99.90
54898;DHT22;40800;52.704;6.398;2024-03-02T13:45:42;15.70;99.90
54898;DHT22;40800;52.704;6.398;2024-03-02T13:48:07;15.60;99.90
54898;DHT22;40800;52.704;6.398;2024-03-02T13:50:33;15.80;99.90
54898;DHT22;40800;52.704;6.398;2024-03-02T13:52:58;15.40;99.90
54898;DHT22;40800;52.704;6.398;2024-03-02T13:55:24;15.50;99.90
54898;DHT22;40800;52.704;6.398;2024-03-02T13:57:49;15.90;99.90
54898;DHT22;40800;52.704;6.398;2024-03-02T14:00:18;15.50;99.90
54898;DHT22;40800;52.704;6.398;2024-03-02T14:02:45;15.40;99.90
54898;DHT22;40800;52.704;6.398;2024-03-02T14:05:10;15.40;99.90
54898;DHT22;40800;52.704;6.398;2024-03-02T14:07:40;15.40;99.90
54898;DHT22;40800;52.704;6.398;2024-03-02T14:10:06;15.40;99.90
54898;DHT22;40800;52.704;6.398;2024-03-02T14:12:32;15.50;99.90
54898;DHT22;40800;52.704;6.398;2024-03-02T14:14:57;15.40;99.90
54898;DHT22;40800;52.704;6.398;2024-03-02T14:17:28;15.40;99.90
54898;DHT22;40800;52.704;6.398;2024-03-02T14:19:53;15.30;99.90
54898;DHT22;40800;52.704;6.398;2024-03-02T14:22:19;15.20;99.90
54898;DHT22;40800;52.704;6.398;2024-03-02T14:24:45;15.30;99.90
54898;DHT22;40800;52.704;6.398;2024-03-02T14:27:10;15.10;99.90
54898;DHT22;40800;52.704;6.398;2024-03-02T14:29:36;15.10;99.90
54898;DHT22;40800;52.704;6.398;2024-03-02T14:32:03;15.00;99.90
54898;DHT22;40800;52.704;6.398;2024-03-02T14:34:29;15.00;99.90
54898;DHT22;40800;52.704;6.398;2024-03-02T14:36:54;15.00;99.90
54898;DHT22;40800;52.704;6.398;2024-03-02T14:39:20;15.20;99.90
54898;DHT22;40800;52.704;6.398;2024-03-02T14:41:46;15.00;99.90
54898;DHT22;40800;52.704;6.398;2024-03-02T14:44:11;15.30;99.90
54898;DHT22;40800;52.704;6.398;2024-03-02T14:46:37;15.40;99.90
54898;DHT22;40800;52.704;6.398;2024-03-02T14:49:02;15.30;99.90
54898;DHT22;40800;52.704;6.398;2024-03-02T14:51:29;15.10;99.90
54898;DHT22;40800;52.704;6.398;2024-03-02T14:53:55;15.10;99.90
54898;DHT22;40800;52.704;6.398;2024-03-02T14:56:21;15.00;99.90
54898;DHT22;40800;52.704;6.398;2024-03-02T14:58:46;15.00;99.90
54898;DHT22;40800;52.704;6.398;2024-03-02T15:01:12;15.30;99.90
54898;DHT22;40800;52.704;6.398;2024-03-02T15:03:38;15.30;99.90
54898;DHT22;40800;52.704;6.398;2024-03-02T15:06:03;15.50;99.90
54898;DHT22;40800;52.704;6.398;2024-03-02T15:08:29;15.80;99.90
54898;DHT22;40800;52.704;6.398;2024-03-02T15:10:55;15.90;99.90
54898;DHT22;40800;52.704;6.398;2024-03-02T15:13:25;16.00;99.90
54898;DHT22;40800;52.704;6.398;2024-03-02T15:15:51;15.90;99.90
54898;DHT22;40800;52.704;6.398;2024-03-02T15:18:17;16.10;99.90
54898;DHT22;40800;52.704;6.398;2024-03-02T15:20:43;16.00;99.90
54898;DHT22;40800;52.704;6.398;2024-03-02T15:23:08;15.90;99.90
54898;DHT22;40800;52.704;6.398;2024-03-02T15:25:34;15.90;99.90
54898;DHT22;40800;52.704;6.398;2024-03-02T15:27:59;15.90;99.90
54898;DHT22;40800;52.704;6.398;2024-03-02T15:30:25;15.80;99.90
54898;DHT22;40800;52.704;6.398;2024-03-02T15:32:50;15.70;99.90
54898;DHT22;40800;52.704;6.398;2024-03-02T15:35:17;15.60;99.90
54898;DHT22;40800;52.704;6.398;2024-03-02T15:37:42;15.80;99.90
54898;DHT22;40800;52.704;6.398;2024-03-02T15:40:08;15.90;99.90